YNTN

Details ICAO YNTN (NTN)
Name Normanton
Region Australia
Timezone Australia/Brisbane (UTC+10.0)
Plans Departing 6
Arriving 6
Stats Elevation 36 ft / 11 m (AMSL)
Location -17.687107° 141.071712°
Runways 1
Magnetic Variation 5.633° E
Sunrise 2018-05-20 20:56:45 UTC / 2018-05-21 06:56:45 Local
Sunset 2018-05-21 08:10:39 UTC / 2018-05-21 18:10:39 Local
Advertisement - Login to hide

Runways

ID Width Length Bearing (true) Bearing (mag) Surface Threshold Offset Overrun Length
14 98 ft / 30 m 5,476 ft / 1,669 m 146.83° 141.20° Asphalt 0 ft / 0 m 0 ft / 0 m
32 98 ft / 30 m 5,476 ft / 1,669 m 326.83° 321.20° Asphalt 0 ft / 0 m 0 ft / 0 m

Map

Weather


0- 5 10 15 20 25 30 35+ Temperature / ° C

Clouds and Precipitation
Forecast for 2018-05-20 12:00 UTC. Updated 4 hours ago

Ground ~20,000 ft ~40,000 ft Winds

METAR

YNTN 201400Z AUTO 17009KT 9999 // NCD 24/10 Q1015

TAF

Not found

Frequencies

Unicom 126.70 MHz CTAF
Warning: Do not use this data for real-world aviation or navigation. No guarantee of current accuracy is given.